Time;durP1;ratioP1;P1;durP2;ratioP2;P2;SDS_P1;SDS_P2;PMS_P1;PMS_P2;Temp;Humidity;BMP_temperature;BMP_pressure;BME280_temperature;BME280_humidity;BME280_pressure;Samples;Min_cycle;Max_cycle;Signal;HPM_P1;HPM_P2
2023/07/10 00:00:59;;;;;;;9.57;5.40;;;21.00;99.90;;;;;;4986506;28;20399;-55
2023/07/10 00:03:24;;;;;;;10.68;5.70;;;20.90;99.90;;;;;;4969008;28;20062;-55
2023/07/10 00:05:50;;;;;;;8.93;5.30;;;20.90;99.90;;;;;;4986307;28;20388;-55
2023/07/10 00:08:15;;;;;;;10.50;4.97;;;20.90;99.90;;;;;;4985774;28;20027;-55
2023/07/10 00:10:41;;;;;;;11.45;5.47;;;20.90;99.90;;;;;;4986148;28;20026;-55
2023/07/10 00:13:11;;;;;;;8.13;5.18;;;20.80;99.90;;;;;;4986489;28;20030;-54
2023/07/10 00:15:37;;;;;;;12.75;5.35;;;20.80;99.90;;;;;;4986342;28;20052;-54
2023/07/10 00:18:13;;;;;;;9.82;6.10;;;20.80;99.90;;;;;;4986475;28;20027;-54
2023/07/10 00:20:39;;;;;;;7.15;5.15;;;20.80;99.90;;;;;;4986390;28;20516;-54
2023/07/10 00:23:04;;;;;;;7.65;5.28;;;20.70;99.90;;;;;;4986162;28;20034;-54
2023/07/10 00:25:30;;;;;;;6.50;5.22;;;20.70;99.90;;;;;;4986073;28;20037;-54
2023/07/10 00:27:55;;;;;;;8.55;5.45;;;20.70;99.90;;;;;;4985696;28;20042;-55
2023/07/10 00:30:23;;;;;;;8.63;5.22;;;20.60;99.90;;;;;;4985910;28;20395;-55
2023/07/10 00:32:53;;;;;;;9.93;5.97;;;20.60;99.90;;;;;;4985848;28;20066;-55
2023/07/10 00:35:24;;;;;;;6.70;5.13;;;20.60;99.90;;;;;;4985989;28;20023;-55
2023/07/10 00:38:01;;;;;;;7.35;5.70;;;20.60;99.90;;;;;;4968343;28;20190;-55
2023/07/10 00:40:32;;;;;;;8.57;5.75;;;20.60;99.90;;;;;;4987050;28;20491;-55
2023/07/10 00:43:16;;;;;;;10.65;6.07;;;20.50;99.90;;;;;;4989313;28;20034;-55
2023/07/10 00:45:41;;;;;;;8.73;6.05;;;20.50;99.90;;;;;;4989233;28;20037;-55
2023/07/10 00:48:19;;;;;;;11.43;5.95;;;20.50;99.90;;;;;;4989054;28;20026;-55
2023/07/10 00:50:46;;;;;;;11.05;6.53;;;20.40;99.90;;;;;;4989476;28;20022;-55
2023/07/10 00:53:27;;;;;;;13.30;5.53;;;20.40;99.90;;;;;;4989019;28;20091;-55
2023/07/10 00:55:54;;;;;;;8.05;5.63;;;20.40;99.90;;;;;;4989159;28;20019;-55
2023/07/10 00:58:35;;;;;;;9.80;6.68;;;20.40;99.90;;;;;;4988557;28;20050;-56
2023/07/10 01:01:24;;;;;;;10.63;6.57;;;20.30;99.90;;;;;;4989132;28;20027;-55
2023/07/10 01:03:52;;;;;;;9.27;6.47;;;20.30;99.90;;;;;;4971648;28;20023;-55
2023/07/10 01:06:17;;;;;;;10.32;6.30;;;20.30;99.90;;;;;;4988900;28;20544;-55
2023/07/10 01:09:07;;;;;;;8.93;6.25;;;20.30;99.90;;;;;;4988268;28;20106;-55
2023/07/10 01:11:36;;;;;;;9.88;6.55;;;20.20;99.90;;;;;;4989068;28;20022;-55
2023/07/10 01:14:05;;;;;;;11.98;6.45;;;20.10;99.90;;;;;;4971180;28;20065;-55
2023/07/10 01:16:32;;;;;;;13.57;6.78;;;20.10;99.90;;;;;;4988494;28;20038;-55
2023/07/10 01:18:58;;;;;;;9.60;5.90;;;20.10;99.90;;;;;;4988450;28;20030;-55
2023/07/10 01:21:32;;;;;;;12.55;6.95;;;20.00;99.90;;;;;;4988435;28;20446;-55
2023/07/10 01:24:01;;;;;;;13.88;6.22;;;20.00;99.90;;;;;;4988607;28;20034;-55
2023/07/10 01:26:28;;;;;;;12.05;5.97;;;20.10;99.90;;;;;;4988324;28;20038;-55
2023/07/10 01:28:55;;;;;;;7.32;5.35;;;20.10;99.90;;;;;;4970496;28;20034;-55
2023/07/10 01:31:22;;;;;;;9.45;6.40;;;20.10;99.90;;;;;;4988621;28;20331;-55
2023/07/10 01:33:58;;;;;;;11.40;6.38;;;20.00;99.90;;;;;;4988625;28;20022;-55
2023/07/10 01:36:26;;;;;;;11.02;6.40;;;20.10;99.90;;;;;;4988491;28;20114;-55
2023/07/10 01:39:19;;;;;;;14.57;6.43;;;20.10;99.90;;;;;;4987823;28;20057;-55
2023/07/10 01:41:45;;;;;;;12.65;6.65;;;20.00;99.90;;;;;;4988269;28;20037;-55
2023/07/10 01:44:27;;;;;;;12.05;5.90;;;20.00;99.90;;;;;;4988233;28;20061;-55
2023/07/10 01:46:53;;;;;;;9.70;6.72;;;19.90;99.90;;;;;;4988076;28;20030;-55
2023/07/10 01:49:23;;;;;;;14.15;6.85;;;19.90;99.90;;;;;;5002537;28;20015;-55
2023/07/10 01:51:49;;;;;;;10.02;6.32;;;19.90;99.90;;;;;;4987075;28;20073;-55
2023/07/10 01:54:16;;;;;;;10.38;6.63;;;19.90;99.90;;;;;;4988099;28;20038;-55
2023/07/10 01:56:42;;;;;;;10.65;7.10;;;19.90;99.90;;;;;;4988186;28;20022;-55
2023/07/10 01:59:08;;;;;;;10.88;6.45;;;19.90;99.90;;;;;;4987659;28;20109;-55
2023/07/10 02:01:34;;;;;;;9.35;6.70;;;19.90;99.90;;;;;;4980892;28;20027;-55
2023/07/10 02:04:00;;;;;;;9.88;7.05;;;19.90;99.90;;;;;;4974820;28;20038;-55
2023/07/10 02:06:26;;;;;;;10.45;6.88;;;19.90;99.90;;;;;;4987929;28;20528;-54
2023/07/10 02:08:52;;;;;;;9.60;7.28;;;20.00;99.90;;;;;;4987538;28;20022;-54
2023/07/10 02:11:18;;;;;;;10.15;6.82;;;19.90;99.90;;;;;;4987969;28;20083;-55
2023/07/10 02:13:43;;;;;;;9.98;6.95;;;20.00;99.90;;;;;;4987912;28;20031;-54
2023/07/10 02:16:12;;;;;;;8.48;7.25;;;19.90;99.90;;;;;;5003184;28;20054;-54
2023/07/10 02:18:38;;;;;;;8.63;6.18;;;19.90;99.90;;;;;;4987203;28;20065;-54
2023/07/10 02:21:03;;;;;;;12.32;6.93;;;19.80;99.90;;;;;;4987750;28;20061;-55
2023/07/10 02:23:29;;;;;;;8.55;6.47;;;19.80;99.90;;;;;;4980378;28;20042;-55
2023/07/10 02:25:55;;;;;;;10.82;6.55;;;19.80;99.90;;;;;;4978454;28;20034;-54
2023/07/10 02:28:21;;;;;;;9.45;6.68;;;19.80;99.90;;;;;;4977647;28;20029;-55
2023/07/10 02:30:47;;;;;;;11.43;6.68;;;19.70;99.90;;;;;;4981025;28;20075;-55
2023/07/10 02:33:13;;;;;;;7.80;6.70;;;19.80;99.90;;;;;;4986666;28;20015;-55
2023/07/10 02:35:40;;;;;;;8.50;6.63;;;19.80;99.90;;;;;;4987161;28;20022;-55
2023/07/10 02:38:06;;;;;;;7.75;6.47;;;19.80;99.90;;;;;;4984422;28;20037;-55
2023/07/10 02:40:31;;;;;;;7.32;6.10;;;19.80;99.90;;;;;;5035251;28;20037;-55
2023/07/10 02:42:57;;;;;;;9.30;6.80;;;19.80;99.90;;;;;;4982335;28;20034;-55
2023/07/10 02:45:23;;;;;;;9.23;6.45;;;19.80;99.90;;;;;;4987726;28;20120;-55
2023/07/10 02:47:48;;;;;;;11.90;7.63;;;19.90;99.90;;;;;;4969304;28;20034;-55
2023/07/10 02:50:14;;;;;;;13.32;7.68;;;19.90;99.90;;;;;;4986931;28;20101;-55
2023/07/10 02:52:39;;;;;;;9.82;6.75;;;19.90;99.90;;;;;;4987406;28;20354;-55
2023/07/10 02:55:05;;;;;;;9.25;6.90;;;19.90;99.90;;;;;;4970095;28;20031;-55
2023/07/10 02:57:30;;;;;;;10.43;6.93;;;19.90;99.90;;;;;;4987185;28;20456;-55
2023/07/10 02:59:56;;;;;;;7.70;6.47;;;19.90;99.90;;;;;;4986910;28;20037;-55
2023/07/10 03:02:22;;;;;;;8.48;6.60;;;19.90;99.90;;;;;;4983582;28;20495;-55
2023/07/10 03:04:47;;;;;;;9.93;7.68;;;19.90;99.90;;;;;;4986549;28;20030;-55
2023/07/10 03:07:13;;;;;;;11.82;7.47;;;19.90;99.90;;;;;;4969240;28;20018;-55
2023/07/10 03:09:38;;;;;;;9.20;6.82;;;19.90;99.90;;;;;;5028183;28;20032;-55
2023/07/10 03:12:05;;;;;;;8.57;6.88;;;19.90;99.90;;;;;;5006788;28;20099;-55
2023/07/10 03:14:30;;;;;;;9.50;7.00;;;19.90;99.90;;;;;;5006781;28;20514;-54
2023/07/10 03:16:56;;;;;;;10.23;7.57;;;19.90;99.90;;;;;;5006666;28;20098;-55
2023/07/10 03:19:21;;;;;;;9.52;7.15;;;19.90;99.90;;;;;;5006503;28;20478;-56
2023/07/10 03:21:47;;;;;;;9.50;7.70;;;19.90;99.90;;;;;;4989023;28;20030;-55
2023/07/10 03:24:12;;;;;;;9.13;7.00;;;19.90;99.90;;;;;;5006570;28;20029;-56
2023/07/10 03:26:38;;;;;;;11.25;7.55;;;19.80;99.90;;;;;;4988973;28;20126;-56
2023/07/10 03:29:06;;;;;;;9.93;6.82;;;19.80;99.90;;;;;;5005884;28;20061;-55
2023/07/10 03:31:32;;;;;;;11.93;7.47;;;19.80;99.90;;;;;;5005988;28;20378;-55
2023/07/10 03:33:58;;;;;;;11.15;7.43;;;19.70;99.90;;;;;;5006116;28;20022;-55
2023/07/10 03:36:23;;;;;;;8.82;7.43;;;19.80;99.90;;;;;;5006164;28;20058;-56
2023/07/10 03:38:49;;;;;;;12.55;7.35;;;19.70;99.90;;;;;;5005772;28;20033;-56
2023/07/10 03:41:14;;;;;;;8.35;6.90;;;19.70;99.90;;;;;;5006069;28;20025;-56
2023/07/10 03:43:40;;;;;;;11.25;7.10;;;19.70;99.90;;;;;;5004351;28;20034;-55
2023/07/10 03:46:05;;;;;;;13.90;8.15;;;19.70;99.90;;;;;;4987734;28;20077;-54
2023/07/10 03:48:31;;;;;;;9.30;6.93;;;19.70;99.90;;;;;;4980844;28;20069;-54
2023/07/10 03:50:58;;;;;;;7.70;7.00;;;19.70;99.90;;;;;;5000918;28;20034;-54
2023/07/10 03:53:23;;;;;;;7.82;6.80;;;19.70;99.90;;;;;;5006226;28;20053;-54
2023/07/10 03:55:53;;;;;;;11.23;7.05;;;19.70;99.90;;;;;;5006328;28;20503;-54
2023/07/10 03:58:28;;;;;;;8.60;7.10;;;19.70;99.90;;;;;;5005965;28;20542;-54
2023/07/10 04:00:55;;;;;;;9.02;7.50;;;19.70;99.90;;;;;;5005975;28;20033;-54
2023/07/10 04:03:23;;;;;;;8.32;7.00;;;19.80;99.90;;;;;;5005966;28;20040;-54
2023/07/10 04:05:52;;;;;;;9.73;7.25;;;19.80;99.90;;;;;;5005941;28;20026;-55
2023/07/10 04:08:21;;;;;;;10.65;7.38;;;19.80;99.90;;;;;;5005605;28;20023;-55
2023/07/10 04:10:54;;;;;;;9.45;7.35;;;19.80;99.90;;;;;;4988169;28;20039;-55
2023/07/10 04:13:20;;;;;;;11.15;8.05;;;19.80;99.90;;;;;;4968614;28;20030;-56
2023/07/10 04:16:14;;;;;;;10.63;8.02;;;19.90;99.90;;;;;;4987839;28;20072;-56
2023/07/10 04:18:41;;;;;;;12.38;7.45;;;19.90;99.90;;;;;;4989505;28;20068;-56
2023/07/10 04:21:11;;;;;;;7.97;7.18;;;20.00;99.90;;;;;;4972084;28;20022;-56
2023/07/10 04:23:37;;;;;;;10.88;7.57;;;20.00;99.90;;;;;;4983197;28;20110;-55
2023/07/10 04:26:02;;;;;;;8.50;7.18;;;20.00;99.90;;;;;;4970377;28;20490;-56
2023/07/10 04:28:28;;;;;;;8.23;7.05;;;20.00;99.90;;;;;;4969763;28;20240;-55
2023/07/10 04:30:54;;;;;;;10.82;7.72;;;20.10;99.90;;;;;;4970506;28;20480;-55
2023/07/10 04:33:21;;;;;;;9.68;7.50;;;20.10;99.90;;;;;;4970688;28;20030;-55
2023/07/10 04:35:55;;;;;;;10.80;8.00;;;20.20;99.90;;;;;;4970084;28;20496;-56
2023/07/10 04:38:26;;;;;;;9.27;6.80;;;20.20;99.90;;;;;;4969264;28;20037;-55
2023/07/10 04:41:00;;;;;;;13.80;8.02;;;20.20;99.90;;;;;;5070223;28;20062;-55
2023/07/10 04:43:27;;;;;;;8.82;7.03;;;20.30;99.90;;;;;;4969670;28;20037;-55
2023/07/10 04:45:54;;;;;;;9.57;7.20;;;20.40;99.90;;;;;;5036653;28;20027;-56
2023/07/10 04:48:20;;;;;;;8.60;7.50;;;20.40;99.90;;;;;;4977487;28;20053;-55
2023/07/10 04:50:48;;;;;;;15.75;8.60;;;20.40;99.90;;;;;;4979459;28;20031;-56
2023/07/10 04:53:14;;;;;;;13.95;8.43;;;20.50;99.90;;;;;;4979998;28;20419;-55
2023/07/10 04:55:39;;;;;;;10.93;7.78;;;20.50;99.90;;;;;;5001662;28;20019;-55
2023/07/10 04:58:05;;;;;;;13.15;7.55;;;20.50;99.90;;;;;;4976599;28;20027;-55
2023/07/10 05:00:31;;;;;;;9.25;7.28;;;20.50;99.90;;;;;;4968935;28;20522;-55
2023/07/10 05:02:56;;;;;;;10.43;7.43;;;20.50;99.90;;;;;;4969198;28;20045;-55
2023/07/10 05:05:22;;;;;;;9.40;7.53;;;20.50;99.90;;;;;;4969575;28;20062;-55
2023/07/10 05:07:47;;;;;;;10.45;8.25;;;20.50;99.90;;;;;;4976097;28;20125;-55
2023/07/10 05:10:13;;;;;;;8.65;7.10;;;20.50;99.90;;;;;;4978432;28;20463;-55
2023/07/10 05:12:38;;;;;;;13.98;8.25;;;20.40;99.90;;;;;;4978283;28;20015;-55
2023/07/10 05:15:04;;;;;;;13.82;9.35;;;20.30;99.90;;;;;;4979953;28;20471;-55
2023/07/10 05:17:30;;;;;;;13.50;8.65;;;20.40;99.90;;;;;;4978284;28;20019;-55
2023/07/10 05:19:55;;;;;;;13.00;8.73;;;20.30;99.90;;;;;;4978013;28;20034;-55
2023/07/10 05:22:21;;;;;;;12.25;8.60;;;20.30;99.90;;;;;;4979624;28;20031;-55
2023/07/10 05:24:46;;;;;;;13.93;9.15;;;20.30;99.90;;;;;;4977290;28;20122;-55
2023/07/10 05:27:12;;;;;;;12.88;9.38;;;20.30;99.90;;;;;;4984879;28;20110;-55
2023/07/10 05:29:37;;;;;;;13.05;9.25;;;20.20;99.90;;;;;;4985996;28;20019;-55
2023/07/10 05:32:03;;;;;;;12.93;9.32;;;20.20;99.90;;;;;;4988410;28;20029;-55
2023/07/10 05:34:29;;;;;;;13.20;9.10;;;20.30;99.90;;;;;;4986952;28;20026;-55
2023/07/10 05:36:54;;;;;;;14.02;8.40;;;20.30;99.90;;;;;;5005108;28;20030;-56
2023/07/10 05:39:20;;;;;;;15.98;9.13;;;20.40;99.90;;;;;;4987140;28;20026;-56
2023/07/10 05:41:45;;;;;;;16.10;9.38;;;20.40;99.90;;;;;;4969508;28;20026;-55
2023/07/10 05:44:11;;;;;;;11.05;8.27;;;20.50;99.90;;;;;;4987121;28;20066;-56
2023/07/10 05:46:36;;;;;;;12.88;8.25;;;20.60;99.90;;;;;;4987077;28;20346;-55
2023/07/10 05:49:02;;;;;;;9.48;7.80;;;20.70;99.90;;;;;;4987041;28;20038;-55
2023/07/10 05:51:27;;;;;;;13.38;8.77;;;20.80;99.90;;;;;;4988073;28;20034;-56
2023/07/10 05:53:53;;;;;;;13.85;9.25;;;20.90;99.90;;;;;;4987077;28;20027;-54
2023/07/10 05:56:19;;;;;;;13.25;9.00;;;21.00;99.90;;;;;;4986944;28;20030;-54
2023/07/10 05:58:45;;;;;;;17.48;9.45;;;21.00;99.90;;;;;;4987177;28;20034;-54
2023/07/10 06:01:12;;;;;;;19.45;9.02;;;21.10;99.90;;;;;;4969841;28;20399;-54
2023/07/10 06:03:37;;;;;;;12.25;8.52;;;21.10;99.90;;;;;;4987547;28;20102;-54
2023/07/10 06:06:05;;;;;;;17.23;9.45;;;21.20;99.90;;;;;;4987474;28;20105;-55
2023/07/10 06:08:32;;;;;;;14.35;8.25;;;21.20;99.90;;;;;;4988259;28;20027;-55
2023/07/10 06:10:58;;;;;;;14.35;8.82;;;21.30;99.90;;;;;;4988459;28;20065;-55
2023/07/10 06:13:24;;;;;;;15.23;9.15;;;21.30;99.90;;;;;;5023885;28;20039;-55
2023/07/10 06:15:53;;;;;;;16.58;8.50;;;21.30;99.90;;;;;;5035257;28;20040;-55
2023/07/10 06:18:19;;;;;;;17.63;8.93;;;21.40;99.90;;;;;;5013546;28;20123;-55
2023/07/10 06:20:53;;;;;;;24.75;10.40;;;21.50;99.90;;;;;;5029708;28;20038;-55
2023/07/10 06:23:19;;;;;;;18.85;10.30;;;21.60;99.90;;;;;;5037970;28;20062;-55
2023/07/10 06:25:45;;;;;;;18.50;9.70;;;21.70;99.90;;;;;;5045695;28;20118;-55
2023/07/10 06:28:11;;;;;;;15.60;10.15;;;21.70;99.90;;;;;;4985805;28;20114;-55
2023/07/10 06:30:41;;;;;;;14.45;10.15;;;21.70;99.90;;;;;;4985555;28;20383;-55
2023/07/10 06:33:07;;;;;;;13.90;9.10;;;21.60;99.90;;;;;;4987476;28;20064;-55
2023/07/10 06:35:33;;;;;;;18.40;9.90;;;21.60;99.90;;;;;;4987460;28;20309;-55
2023/07/10 06:37:58;;;;;;;11.88;9.15;;;21.70;99.90;;;;;;4986745;28;20062;-55
2023/07/10 06:40:24;;;;;;;18.67;11.10;;;21.70;99.90;;;;;;5030276;28;20043;-55
2023/07/10 06:42:49;;;;;;;13.45;9.48;;;21.80;99.90;;;;;;5088590;28;20073;-55
2023/07/10 06:45:15;;;;;;;15.68;9.40;;;21.80;99.90;;;;;;5034124;28;20073;-55
2023/07/10 06:47:44;;;;;;;16.55;9.70;;;21.90;99.90;;;;;;4968969;28;20551;-55
2023/07/10 06:50:13;;;;;;;16.98;9.80;;;21.90;99.90;;;;;;4986259;28;20278;-55
2023/07/10 06:52:41;;;;;;;15.40;10.00;;;22.00;99.90;;;;;;4986832;28;20088;-55
2023/07/10 06:55:12;;;;;;;16.10;9.90;;;22.00;99.90;;;;;;5018119;28;20451;-55
2023/07/10 06:57:38;;;;;;;13.20;9.32;;;22.00;99.90;;;;;;5001350;28;20024;-55
2023/07/10 07:00:08;;;;;;;13.95;9.55;;;21.80;99.90;;;;;;5032597;28;20037;-55
2023/07/10 07:02:34;;;;;;;;;;;21.80;99.90;;;;;;4986816;28;20031;-54
2023/07/10 07:05:00;;;;;;;17.05;10.02;;;21.70;99.90;;;;;;4986832;28;20351;-55
2023/07/10 07:07:26;;;;;;;19.88;10.57;;;21.60;99.90;;;;;;4986549;28;20041;-55
2023/07/10 07:09:51;;;;;;;13.93;10.48;;;21.50;99.90;;;;;;4986611;28;20238;-54
2023/07/10 07:12:17;;;;;;;13.77;9.10;;;21.50;99.90;;;;;;4987067;28;20033;-55
2023/07/10 07:14:42;;;;;;;17.40;10.90;;;21.50;99.90;;;;;;4987089;28;20697;-55
2023/07/10 07:17:08;;;;;;;11.35;10.05;;;21.50;99.90;;;;;;4968664;28;20030;-55
2023/07/10 07:19:34;;;;;;;14.05;9.65;;;21.40;99.90;;;;;;4986471;28;20117;-55
2023/07/10 07:22:03;;;;;;;14.20;10.45;;;21.40;99.90;;;;;;4986693;28;20252;-55
2023/07/10 07:24:29;;;;;;;11.30;9.35;;;21.40;99.90;;;;;;4986947;28;20140;-54
2023/07/10 07:26:54;;;;;;;15.30;10.50;;;21.40;99.90;;;;;;4986515;28;20038;-55
2023/07/10 07:29:20;;;;;;;13.20;10.43;;;21.50;99.90;;;;;;4986429;28;20045;-55
2023/07/10 07:31:45;;;;;;;14.10;9.32;;;21.40;99.90;;;;;;4989703;28;20027;-55
2023/07/10 07:34:11;;;;;;;15.82;11.75;;;21.30;99.90;;;;;;5070678;28;20028;-54
2023/07/10 07:36:37;;;;;;;14.13;11.20;;;21.30;99.90;;;;;;5088816;28;20472;-54
2023/07/10 07:39:04;;;;;;;15.73;11.10;;;21.20;99.90;;;;;;5088618;28;20020;-55
2023/07/10 07:41:33;;;;;;;19.23;13.05;;;21.20;99.90;;;;;;5070485;28;20020;-54
2023/07/10 07:44:00;;;;;;;19.50;13.75;;;21.10;99.90;;;;;;5088887;28;20027;-54
2023/07/10 07:46:25;;;;;;;13.82;11.48;;;21.00;99.90;;;;;;5088890;28;20370;-54
2023/07/10 07:48:51;;;;;;;19.30;13.35;;;21.00;99.90;;;;;;5088073;28;20107;-54
2023/07/10 07:51:17;;;;;;;18.40;15.77;;;21.00;99.90;;;;;;5091580;28;20024;-54
2023/07/10 07:53:42;;;;;;;20.33;15.00;;;20.90;99.90;;;;;;5093069;28;20473;-54
2023/07/10 07:56:09;;;;;;;19.30;15.20;;;20.90;99.90;;;;;;5023718;28;20114;-55
2023/07/10 07:58:35;;;;;;;25.08;15.57;;;20.90;99.90;;;;;;4989327;28;20030;-54
2023/07/10 08:01:01;;;;;;;21.73;15.43;;;20.90;99.90;;;;;;4989964;28;20134;-54
2023/07/10 08:03:27;;;;;;;28.08;18.90;;;21.00;99.90;;;;;;4990816;28;20425;-55
2023/07/10 08:05:53;;;;;;;24.75;16.27;;;21.00;99.90;;;;;;5074787;28;20020;-55
2023/07/10 08:08:19;;;;;;;21.70;15.32;;;21.10;99.90;;;;;;5015624;28;20028;-55
2023/07/10 08:10:47;;;;;;;22.08;14.35;;;21.20;99.90;;;;;;5029898;28;20469;-54
2023/07/10 08:13:14;;;;;;;21.85;14.23;;;21.30;99.90;;;;;;5032659;28;20046;-55
2023/07/10 08:15:40;;;;;;;31.30;14.25;;;21.40;99.90;;;;;;5032531;28;20034;-55
2023/07/10 08:18:06;;;;;;;18.88;13.70;;;21.50;99.90;;;;;;5032029;28;20452;-55
2023/07/10 08:20:33;;;;;;;20.00;13.50;;;21.50;99.90;;;;;;5041039;28;20024;-55
2023/07/10 08:22:58;;;;;;;23.20;12.82;;;21.50;99.90;;;;;;5092343;28;20031;-55
2023/07/10 08:25:24;;;;;;;15.73;12.00;;;21.40;99.90;;;;;;5092806;28;20024;-56
2023/07/10 08:27:50;;;;;;;18.90;14.05;;;21.40;99.90;;;;;;5068727;28;20061;-55
2023/07/10 08:30:16;;;;;;;18.52;13.45;;;21.40;99.90;;;;;;4989047;28;20018;-55
2023/07/10 08:32:42;;;;;;;18.23;13.32;;;21.40;99.90;;;;;;4989953;28;20053;-55
2023/07/10 08:35:07;;;;;;;14.65;11.60;;;21.30;99.90;;;;;;4984240;28;20039;-55
2023/07/10 08:37:36;;;;;;;17.20;12.73;;;21.30;99.90;;;;;;4992906;28;20092;-55
2023/07/10 08:40:03;;;;;;;17.58;12.95;;;21.30;99.90;;;;;;4996234;28;20487;-55
2023/07/10 08:42:31;;;;;;;24.05;14.18;;;21.20;99.90;;;;;;4978648;28;20549;-55
2023/07/10 08:44:58;;;;;;;22.75;16.27;;;21.20;99.90;;;;;;5003492;28;20030;-55
2023/07/10 08:47:35;;;;;;;19.17;15.45;;;21.20;99.90;;;;;;4986900;28;20181;-55
2023/07/10 08:50:10;;;;;;;19.88;14.93;;;21.10;99.90;;;;;;5014807;28;20038;-55
2023/07/10 08:53:04;;;;;;;21.80;16.25;;;21.10;99.90;;;;;;4982844;28;20034;-55
2023/07/10 08:55:44;;;;;;;24.02;15.82;;;21.00;99.90;;;;;;4987349;28;20054;-55
2023/07/10 08:58:29;;;;;;;24.70;17.40;;;20.90;99.90;;;;;;4980323;28;20026;-54
2023/07/10 09:01:02;;;;;;;19.15;14.73;;;20.90;99.90;;;;;;4986950;28;20079;-54
2023/07/10 09:03:44;;;;;;;24.65;15.73;;;20.90;99.90;;;;;;4988341;28;20499;-54
2023/07/10 09:06:24;;;;;;;19.77;12.63;;;21.00;99.90;;;;;;4988851;28;20034;-54
2023/07/10 09:08:51;;;;;;;17.45;11.82;;;21.20;99.90;;;;;;4988642;28;20430;-55
2023/07/10 09:11:18;;;;;;;19.08;12.93;;;21.50;99.90;;;;;;4971802;28;20480;-55
2023/07/10 09:13:55;;;;;;;16.35;11.07;;;21.70;99.90;;;;;;4988877;28;20065;-55
2023/07/10 09:16:21;;;;;;;16.27;11.55;;;22.00;99.90;;;;;;4971349;28;20103;-55
2023/07/10 09:18:55;;;;;;;17.88;11.23;;;22.20;99.90;;;;;;4988242;28;20663;-55
2023/07/10 09:21:25;;;;;;;18.45;10.52;;;22.30;99.90;;;;;;4988590;28;20026;-55
2023/07/10 09:23:51;;;;;;;18.30;12.07;;;22.30;99.90;;;;;;4988614;28;20109;-54
2023/07/10 09:26:38;;;;;;;16.90;11.82;;;22.20;99.90;;;;;;4989185;28;20110;-55
2023/07/10 09:29:10;;;;;;;16.38;10.73;;;22.00;99.90;;;;;;4988312;28;20018;-55
2023/07/10 09:31:49;;;;;;;17.05;11.90;;;21.80;99.90;;;;;;4988867;28;20030;-55
2023/07/10 09:34:18;;;;;;;14.27;11.25;;;21.70;99.90;;;;;;4988927;28;20042;-55
2023/07/10 09:36:50;;;;;;;16.25;10.93;;;21.70;99.90;;;;;;4988774;28;20030;-54
2023/07/10 09:39:16;;;;;;;16.63;13.13;;;21.60;99.90;;;;;;4952942;28;20034;-55
2023/07/10 09:41:43;;;;;;;19.40;13.30;;;21.60;99.90;;;;;;4987454;28;20427;-54
2023/07/10 09:44:15;;;;;;;18.25;13.23;;;21.50;99.90;;;;;;5022300;28;20023;-55
2023/07/10 09:46:40;;;;;;;15.75;11.70;;;21.40;99.90;;;;;;4998141;28;20030;-55
2023/07/10 09:49:20;;;;;;;20.80;13.35;;;21.40;99.90;;;;;;5017671;28;20028;-54
2023/07/10 09:52:11;;;;;;;17.27;12.23;;;21.40;99.90;;;;;;5026260;28;20084;-54
2023/07/10 09:54:39;;;;;;;17.38;13.07;;;21.40;99.90;;;;;;5025489;28;20117;-55
2023/07/10 09:57:12;;;;;;;12.43;9.35;;;21.30;99.90;;;;;;5030674;28;20065;-54
2023/07/10 09:59:38;;;;;;;15.63;11.25;;;21.40;99.90;;;;;;5016265;28;20034;-54
2023/07/10 10:02:24;;;;;;;15.52;10.55;;;21.60;99.90;;;;;;4970555;28;20029;-54
2023/07/10 10:05:17;;;;;;;13.82;9.90;;;21.50;99.90;;;;;;4986552;28;20510;-54
2023/07/10 10:07:46;;;;;;;13.88;10.05;;;21.60;99.90;;;;;;4985058;28;20026;-54
2023/07/10 10:10:32;;;;;;;13.82;10.52;;;21.50;99.90;;;;;;4981728;28;20068;-55
2023/07/10 10:13:20;;;;;;;13.45;9.40;;;21.40;99.90;;;;;;4978868;28;20030;-55
2023/07/10 10:19:17;;;;;;;15.07;10.02;;;21.30;99.90;;;;;;4971470;28;21002;-55
2023/07/10 10:28:44;;;;;;;11.77;8.15;;;21.40;99.90;;;;;;4958058;28;20091;-54
2023/07/10 10:31:46;;;;;;;9.20;7.15;;;21.70;99.90;;;;;;4979449;28;20159;-54
2023/07/10 10:34:35;;;;;;;11.30;8.05;;;22.10;99.90;;;;;;4976099;28;20046;-54
2023/07/10 10:37:14;;;;;;;11.38;7.32;;;22.30;99.90;;;;;;4980882;28;20054;-54
2023/07/10 10:39:50;;;;;;;9.18;7.80;;;22.50;99.90;;;;;;4986784;28;20026;-54
2023/07/10 10:42:46;;;;;;;9.35;6.80;;;22.50;99.90;;;;;;4979584;28;20102;-54
2023/07/10 10:45:42;;;;;;;9.57;7.82;;;22.50;99.90;;;;;;4979888;28;20046;-54
2023/07/10 10:48:19;;;;;;;8.55;7.65;;;22.50;99.90;;;;;;4972597;28;20480;-54
2023/07/10 10:51:08;;;;;;;10.20;7.60;;;22.40;99.90;;;;;;4966357;28;20054;-54
2023/07/10 10:53:52;;;;;;;10.30;8.47;;;22.40;99.90;;;;;;4986984;28;20034;-54
2023/07/10 10:56:34;;;;;;;8.27;7.20;;;22.50;99.90;;;;;;4985840;28;20101;-54
2023/07/10 10:59:35;;;;;;;13.05;7.90;;;22.50;99.90;;;;;;4984977;28;20113;-54
2023/07/10 11:02:19;;;;;;;12.50;7.88;;;22.50;99.90;;;;;;4983886;28;20027;-54
2023/07/10 11:05:09;;;;;;;8.32;7.13;;;22.50;99.90;;;;;;4982955;28;20024;-54
2023/07/10 11:07:36;;;;;;;11.10;9.03;;;22.50;99.90;;;;;;4978603;28;20030;-54
2023/07/10 11:10:10;;;;;;;14.82;9.50;;;22.30;99.90;;;;;;4986152;28;20036;-55
2023/07/10 11:12:37;;;;;;;10.25;8.35;;;22.30;99.90;;;;;;4987274;28;20022;-55
2023/07/10 11:15:13;;;;;;;8.82;7.93;;;22.50;99.90;;;;;;4986124;28;20033;-55
2023/07/10 11:17:39;;;;;;;11.90;8.98;;;22.60;99.90;;;;;;4986780;28;20167;-55
2023/07/10 11:20:05;;;;;;;10.82;8.77;;;22.70;99.90;;;;;;4978711;28;20249;-55
2023/07/10 11:22:32;;;;;;;11.63;9.18;;;22.90;99.90;;;;;;4986543;28;20263;-55
2023/07/10 11:25:01;;;;;;;15.73;8.98;;;22.90;99.90;;;;;;4986330;28;20403;-55
2023/07/10 11:31:11;;;;;;;10.75;8.35;;;22.90;99.90;;;;;;4953385;28;20102;-55
2023/07/10 11:33:37;;;;;;;9.48;7.82;;;22.90;99.90;;;;;;4967332;28;20023;-55
2023/07/10 11:36:24;;;;;;;10.98;8.63;;;22.90;99.90;;;;;;4989454;28;20043;-55
2023/07/10 11:39:05;;;;;;;10.20;9.07;;;22.90;99.90;;;;;;4985796;28;20118;-55
2023/07/10 11:41:44;;;;;;;11.32;8.35;;;23.00;99.90;;;;;;4984110;28;20030;-55
2023/07/10 11:44:31;;;;;;;12.10;8.38;;;23.10;99.90;;;;;;4984225;28;20416;-55
2023/07/10 11:47:05;;;;;;;11.23;8.95;;;23.40;99.90;;;;;;4983653;28;20130;-55
2023/07/10 11:49:40;;;;;;;10.57;8.27;;;23.70;99.90;;;;;;4984118;28;20026;-55
2023/07/10 11:52:11;;;;;;;9.77;7.47;;;23.70;99.90;;;;;;4984635;28;20050;-55
2023/07/10 11:54:45;;;;;;;10.43;7.43;;;23.90;99.90;;;;;;4978447;28;20491;-55
2023/07/10 11:57:12;;;;;;;12.43;7.57;;;24.30;99.90;;;;;;4986484;28;20122;-55
2023/07/10 11:59:48;;;;;;;10.45;7.28;;;24.50;99.90;;;;;;4986165;28;20314;-55
2023/07/10 12:02:51;;;;;;;8.57;6.72;;;24.70;99.90;;;;;;4983920;28;20065;-55
2023/07/10 12:05:22;;;;;;;9.15;7.05;;;24.70;99.90;;;;;;4986106;28;20053;-55
2023/07/10 12:08:04;;;;;;;8.65;7.10;;;25.10;99.90;;;;;;4985918;28;20022;-55
2023/07/10 12:10:35;;;;;;;8.15;6.65;;;25.70;99.90;;;;;;4985447;28;20114;-55
2023/07/10 12:13:02;;;;;;;9.60;7.03;;;25.80;99.90;;;;;;4986118;28;20048;-55
2023/07/10 12:26:02;;;;;;;10.80;5.25;;;26.70;99.90;;;;;;4967092;28;20356;-55
2023/07/10 12:28:28;;;;;;;6.85;5.00;;;26.80;99.90;;;;;;4956965;28;20092;-55
2023/07/10 12:30:55;;;;;;;10.63;4.05;;;26.90;99.90;;;;;;4979804;28;20026;-55
2023/07/10 12:33:41;;;;;;;8.65;4.25;;;27.00;99.50;;;;;;4985980;28;20196;-55
2023/07/10 12:36:29;;;;;;;7.78;3.67;;;26.70;98.70;;;;;;4986242;28;20057;-55
2023/07/10 12:38:57;;;;;;;7.57;4.00;;;26.40;98.70;;;;;;4983411;28;20025;-55
2023/07/10 12:41:23;;;;;;;6.07;3.40;;;26.50;98.20;;;;;;4984476;28;20380;-55
2023/07/10 12:43:52;;;;;;;6.70;3.45;;;27.00;98.30;;;;;;4986783;28;20034;-55
2023/07/10 12:46:23;;;;;;;4.50;3.25;;;27.50;97.40;;;;;;4986491;28;20083;-55
2023/07/10 12:48:53;;;;;;;3.38;3.08;;;27.80;95.30;;;;;;4988465;28;20420;-55
2023/07/10 12:51:36;;;;;;;6.22;3.58;;;27.90;95.20;;;;;;4980621;28;20496;-55
2023/07/10 12:54:02;;;;;;;3.78;2.80;;;28.10;94.90;;;;;;4988609;28;20106;-55
2023/07/10 12:56:38;;;;;;;4.43;3.30;;;27.90;95.10;;;;;;4988663;28;20034;-55
2023/07/10 12:59:13;;;;;;;8.55;3.15;;;27.50;95.20;;;;;;4988420;28;20030;-55
2023/07/10 13:01:50;;;;;;;7.47;2.90;;;27.20;95.30;;;;;;4987944;28;20044;-55
2023/07/10 13:04:23;;;;;;;3.88;2.75;;;26.80;95.20;;;;;;4988964;28;20026;-55
2023/07/10 13:07:03;;;;;;;6.03;3.28;;;27.20;96.10;;;;;;4987269;28;20070;-55
2023/07/10 13:09:31;;;;;;;7.07;3.55;;;27.40;94.70;;;;;;4988452;28;20018;-55
2023/07/10 13:11:57;;;;;;;4.22;3.40;;;27.50;95.70;;;;;;4987897;28;20048;-55
2023/07/10 13:14:31;;;;;;;4.38;3.13;;;28.10;94.80;;;;;;4982360;28;20034;-55
2023/07/10 13:16:58;;;;;;;5.82;3.22;;;28.20;94.10;;;;;;4985720;28;20037;-55